Terminal Aerodrome Forecast
Issued by NWS Charleston, WV

Home | Current Version | Previous Version | Text Only | Print | Product List | Glossary On
Versions: 1 2 3 4 5 6 7 8 9 10 11 12 13 14 15 16 17 18 19 20 21 22 23 24 25
000
FTUS41 KRLX 280524
TAFBKW
TAF
KBKW 280524Z 2806/2906 24007KT 6SM BR FEW015 OVC050
     FM280900 23007KT 5SM BR OVC060
     FM282000 26004KT 2SM +SHRA BR VCTS OVC015CB
     FM282200 27005KT 3SM +SHRA BR OVC025=

USA.gov is the U.S. government's official web portal to all federal, state and local government web resources and services.